createdAt,value
2018-08-11T00:02:23.644Z,101662.55
2018-08-11T00:04:51.712Z,101663.50
2018-08-11T00:07:19.776Z,101656.67
2018-08-11T00:09:47.832Z,101647.83
2018-08-11T00:12:15.888Z,101640.60
2018-08-11T00:14:43.948Z,101642.24
2018-08-11T00:17:12.024Z,101642.00
2018-08-11T00:19:40.065Z,101633.73
2018-08-11T00:22:08.120Z,101633.08
2018-08-11T00:24:36.172Z,101636.00
2018-08-11T00:27:04.265Z,101628.19
2018-08-11T00:29:32.316Z,101634.23
2018-08-11T00:32:00.379Z,101626.67
2018-08-11T00:34:28.420Z,101620.87
2018-08-11T00:36:56.474Z,101619.02
2018-08-11T00:39:24.512Z,101613.55
2018-08-11T00:41:52.576Z,101607.97
2018-08-11T00:44:20.619Z,101605.99
2018-08-11T00:46:48.732Z,101607.97
2018-08-11T00:49:17.474Z,101607.39
2018-08-11T00:51:45.648Z,101597.24
2018-08-11T00:54:13.688Z,101593.05
2018-08-11T00:56:41.735Z,101594.81
2018-08-11T00:59:09.783Z,101589.11
2018-08-11T01:01:37.881Z,101592.19
2018-08-11T01:04:05.931Z,101598.80
2018-08-11T01:06:33.976Z,101589.03
2018-08-11T01:09:02.029Z,101586.47
2018-08-11T01:11:30.088Z,101585.08
2018-08-11T01:13:58.157Z,101587.27
2018-08-11T01:16:26.225Z,101577.14
2018-08-11T01:18:54.324Z,101577.94
2018-08-11T01:21:22.381Z,101571.89
2018-08-11T01:23:50.544Z,101578.55
2018-08-11T01:26:18.591Z,101569.09
2018-08-11T01:28:46.688Z,101567.58
2018-08-11T01:31:14.731Z,101566.75
2018-08-11T01:33:42.790Z,101563.39
2018-08-11T01:36:10.862Z,101562.36
2018-08-11T01:38:38.936Z,101558.16
2018-08-11T01:41:06.975Z,101550.94
2018-08-11T01:43:35.044Z,101552.13
2018-08-11T01:46:09.796Z,101551.55
2018-08-11T01:48:37.856Z,101556.44
2018-08-11T01:51:05.911Z,101552.75
2018-08-11T01:53:33.972Z,101546.70
2018-08-11T01:56:02.054Z,101551.72
2018-08-11T01:58:30.164Z,101544.28
2018-08-11T02:00:58.212Z,101543.59
2018-08-11T02:03:26.293Z,101535.00
2018-08-11T02:05:54.385Z,101539.06
2018-08-11T02:08:22.432Z,101535.21
2018-08-11T02:10:50.478Z,101543.47
2018-08-11T02:13:18.533Z,101547.89
2018-08-11T02:15:46.596Z,101546.99
2018-08-11T02:18:14.631Z,101549.91
2018-08-11T02:20:42.680Z,101552.47
2018-08-11T02:23:10.707Z,101554.23
2018-08-11T02:25:38.747Z,101557.97
2018-08-11T02:28:06.839Z,101567.73
2018-08-11T02:30:34.878Z,101562.61
2018-08-11T02:33:02.923Z,101567.94
2018-08-11T02:35:30.957Z,101568.23
2018-08-11T02:37:59.000Z,101567.98
2018-08-11T02:40:27.072Z,101570.50
2018-08-11T02:42:55.108Z,101571.19
2018-08-11T02:45:23.177Z,101576.86
2018-08-11T02:47:51.189Z,101579.73
2018-08-11T02:50:19.266Z,101582.65
2018-08-11T02:52:47.299Z,101585.28
2018-08-11T02:55:15.336Z,101577.72
2018-08-11T02:57:43.371Z,101571.31
2018-08-11T03:00:12.309Z,101564.77
2018-08-11T03:02:40.368Z,101562.09
2018-08-11T03:05:08.408Z,101559.37
2018-08-11T03:07:36.709Z,101558.05
2018-08-11T03:10:05.896Z,101562.48
2018-08-11T03:12:33.935Z,101561.30
2018-08-11T03:15:01.979Z,101563.52
2018-08-11T03:17:30.040Z,101561.09
2018-08-11T03:19:58.114Z,101552.09
2018-08-11T03:22:26.145Z,101559.77
2018-08-11T03:24:54.205Z,101553.47
2018-08-11T03:27:22.244Z,101555.66
2018-08-11T03:29:50.298Z,101555.52
2018-08-11T03:32:18.408Z,101555.39
2018-08-11T03:34:46.464Z,101560.98
2018-08-11T03:37:14.513Z,101557.74
2018-08-11T03:39:42.608Z,101566.05
2018-08-11T03:42:10.651Z,101568.73
2018-08-11T03:44:38.722Z,101555.05
2018-08-11T03:47:06.761Z,101561.22
2018-08-11T03:49:34.807Z,101561.14
2018-08-11T03:52:02.855Z,101578.25
2018-08-11T03:54:30.903Z,101587.83
2018-08-11T03:56:58.956Z,101595.97
2018-08-11T03:59:27.026Z,101593.91
2018-08-11T04:01:55.068Z,101601.27
2018-08-11T04:04:23.140Z,101594.16
2018-08-11T04:06:51.197Z,101591.66
2018-08-11T04:09:19.244Z,101584.02
2018-08-11T04:11:47.308Z,101582.00
2018-08-11T04:14:15.343Z,101579.36
2018-08-11T04:16:43.388Z,101591.94
2018-08-11T04:19:11.416Z,101585.56
2018-08-11T04:21:39.463Z,101604.81
2018-08-11T04:24:08.110Z,101612.30
2018-08-11T04:26:36.157Z,101614.33
2018-08-11T04:29:04.204Z,101618.79
2018-08-11T04:31:32.249Z,101609.08
2018-08-11T04:34:00.276Z,101602.60
2018-08-11T04:36:28.304Z,101599.15
2018-08-11T04:38:56.375Z,101597.87
2018-08-11T04:41:24.424Z,101601.20
2018-08-11T04:43:52.448Z,101596.56
2018-08-11T04:46:20.520Z,101608.18
2018-08-11T04:48:48.547Z,101629.34
2018-08-11T04:51:16.621Z,101634.56
2018-08-11T04:53:44.651Z,101630.13
2018-08-11T04:56:12.696Z,101625.73
2018-08-11T04:58:40.807Z,101619.13
2018-08-11T05:01:08.852Z,101621.19
2018-08-11T05:03:36.875Z,101634.43
2018-08-11T05:06:04.917Z,101640.21
2018-08-11T05:08:32.948Z,101647.07
2018-08-11T05:11:01.019Z,101637.67
2018-08-11T05:13:29.058Z,101624.20
2018-08-11T05:15:57.124Z,101632.09
2018-08-11T05:18:25.184Z,101645.55
2018-08-11T05:20:53.243Z,101629.30
2018-08-11T05:23:21.315Z,101624.41
2018-08-11T05:25:49.372Z,101620.92
2018-08-11T05:28:17.440Z,101622.07
2018-08-11T05:30:45.484Z,101620.67
2018-08-11T05:33:13.610Z,101625.11
2018-08-11T05:35:41.612Z,101630.88
2018-08-11T05:38:09.710Z,101623.45
2018-08-11T05:40:37.776Z,101624.27
2018-08-11T05:43:05.862Z,101621.86
2018-08-11T05:45:33.945Z,101625.22
2018-08-11T05:48:02.004Z,101624.88
2018-08-11T05:50:30.060Z,101636.36
2018-08-11T05:52:58.121Z,101635.44
2018-08-11T05:55:26.184Z,101638.11
2018-08-11T05:57:54.264Z,101641.68
2018-08-11T06:00:22.336Z,101648.42
2018-08-11T06:02:50.396Z,101647.15
2018-08-11T06:05:18.493Z,101644.14
2018-08-11T06:07:46.553Z,101647.39
2018-08-11T06:10:14.640Z,101656.88
2018-08-11T06:12:42.708Z,101652.95
2018-08-11T06:15:10.785Z,101651.43
2018-08-11T06:17:38.876Z,101651.13
2018-08-11T06:20:08.276Z,101642.53
2018-08-11T06:22:36.381Z,101640.94
2018-08-11T06:25:05.900Z,101636.52
2018-08-11T06:27:33.967Z,101630.84
2018-08-11T06:30:02.194Z,101634.77
2018-08-11T06:32:30.204Z,101633.84
2018-08-11T06:34:58.416Z,101628.27
2018-08-11T06:37:26.471Z,101633.98
2018-08-11T06:39:54.528Z,101633.27
2018-08-11T06:42:22.598Z,101627.80
2018-08-11T06:44:50.705Z,101631.30
2018-08-11T06:47:18.781Z,101631.30
2018-08-11T06:49:46.883Z,101629.20
2018-08-11T06:52:14.952Z,101632.23
2018-08-11T06:54:43.028Z,101627.72
2018-08-11T06:57:11.189Z,101632.92
2018-08-11T06:59:39.503Z,101634.33
2018-08-11T07:02:07.589Z,101630.72
2018-08-11T07:04:35.683Z,101641.98
2018-08-11T07:07:04.005Z,101644.39
2018-08-11T07:09:32.053Z,101645.67
2018-08-11T07:12:00.115Z,101643.12
2018-08-11T07:14:28.187Z,101647.40
2018-08-11T07:16:56.250Z,101643.67
2018-08-11T07:19:24.316Z,101652.60
2018-08-11T07:21:52.412Z,101639.19
2018-08-11T07:24:20.459Z,101640.89
2018-08-11T07:26:48.532Z,101642.72
2018-08-11T07:29:16.616Z,101637.05
2018-08-11T07:31:44.660Z,101640.41
2018-08-11T07:34:12.720Z,101643.97
2018-08-11T07:36:40.874Z,101641.11
2018-08-11T07:39:09.545Z,101644.63
2018-08-11T07:41:37.612Z,101638.95
2018-08-11T07:44:05.705Z,101638.25
2018-08-11T07:46:33.756Z,101641.62
2018-08-11T07:49:02.038Z,101644.88
2018-08-11T07:51:30.094Z,101641.36
2018-08-11T07:53:58.155Z,101634.52
2018-08-11T07:56:26.217Z,101636.28
2018-08-11T07:58:54.284Z,101629.58
2018-08-11T08:01:22.354Z,101632.61
2018-08-11T08:03:50.400Z,101635.09
2018-08-11T08:06:18.439Z,101632.64
2018-08-11T08:08:46.489Z,101635.19
2018-08-11T08:11:14.532Z,101633.47
2018-08-11T08:13:42.651Z,101640.00
2018-08-11T08:16:10.655Z,101637.02
2018-08-11T08:18:38.724Z,101640.28
2018-08-11T08:21:06.807Z,101643.43
2018-08-11T08:23:34.893Z,101641.64
2018-08-11T08:26:03.001Z,101652.57
2018-08-11T08:28:31.015Z,101644.32
2018-08-11T08:31:05.609Z,101649.91
2018-08-11T08:33:33.683Z,101645.03
2018-08-11T08:36:02.120Z,101641.51
2018-08-11T08:38:30.508Z,101643.97
2018-08-11T08:40:58.615Z,101638.01
2018-08-11T08:43:27.054Z,101637.52
2018-08-11T08:45:55.146Z,101641.80
2018-08-11T08:48:23.248Z,101627.87
2018-08-11T08:50:51.329Z,101622.48
2018-08-11T08:53:19.483Z,101627.66
2018-08-11T08:55:47.516Z,101620.53
2018-08-11T08:58:15.620Z,101617.20
2018-08-11T09:00:43.688Z,101622.95
2018-08-11T09:03:11.804Z,101611.42
2018-08-11T09:05:39.863Z,101603.91
2018-08-11T09:08:07.975Z,101612.75
2018-08-11T09:10:36.056Z,101613.22
2018-08-11T09:13:04.191Z,101616.06
2018-08-11T09:15:32.300Z,101608.73
2018-08-11T09:18:00.416Z,101610.70
2018-08-11T09:20:28.521Z,101619.21
2018-08-11T09:22:56.577Z,101617.66
2018-08-11T09:25:24.646Z,101610.10
2018-08-11T09:27:52.708Z,101623.44
2018-08-11T09:30:20.776Z,101611.03
2018-08-11T09:32:48.849Z,101615.84
2018-08-11T09:35:16.918Z,101622.83
2018-08-11T09:37:45.005Z,101627.52
2018-08-11T09:40:13.063Z,101621.11
2018-08-11T09:42:41.108Z,101626.08
2018-08-11T09:45:09.164Z,101621.53
2018-08-11T09:47:37.231Z,101618.92
2018-08-11T09:50:05.331Z,101632.06
2018-08-11T09:52:33.425Z,101642.06
2018-08-11T09:55:01.479Z,101649.05
2018-08-11T09:57:29.584Z,101655.17
2018-08-11T09:59:57.808Z,101663.13
2018-08-11T10:02:25.921Z,101666.42
2018-08-11T10:04:53.972Z,101674.94
2018-08-11T10:07:22.046Z,101672.31
2018-08-11T10:09:50.108Z,101663.27
2018-08-11T10:12:18.172Z,101660.50
2018-08-11T10:14:46.247Z,101654.20
2018-08-11T10:17:14.312Z,101660.02
2018-08-11T10:19:42.372Z,101664.40
2018-08-11T10:22:10.460Z,101656.51
2018-08-11T10:24:38.537Z,101657.59
2018-08-11T10:27:06.568Z,101668.84
2018-08-11T10:29:34.628Z,101665.23
2018-08-11T10:32:02.669Z,101662.42
2018-08-11T10:34:30.745Z,101656.89
2018-08-11T10:36:58.800Z,101657.70
2018-08-11T10:39:26.852Z,101662.70
2018-08-11T10:41:54.912Z,101660.71
2018-08-11T10:44:22.959Z,101663.15
2018-08-11T10:46:51.004Z,101658.08
2018-08-11T10:49:19.096Z,101662.59
2018-08-11T10:51:47.191Z,101654.66
2018-08-11T10:54:15.236Z,101664.80
2018-08-11T10:56:43.280Z,101661.59
2018-08-11T10:59:11.337Z,101663.22
2018-08-11T11:01:39.393Z,101659.94
2018-08-11T11:04:07.463Z,101665.64
2018-08-11T11:06:35.553Z,101662.54
2018-08-11T11:09:04.612Z,101667.05
2018-08-11T11:11:32.664Z,101662.23
2018-08-11T11:14:00.723Z,101654.98
2018-08-11T11:16:28.788Z,101651.66
2018-08-11T11:18:56.835Z,101653.03
2018-08-11T11:21:24.910Z,101654.05
2018-08-11T11:23:52.944Z,101658.55
2018-08-11T11:26:20.990Z,101657.53
2018-08-11T11:28:49.024Z,101655.60
2018-08-11T11:31:17.116Z,101650.14
2018-08-11T11:33:45.164Z,101647.39
2018-08-11T11:36:13.209Z,101648.70
2018-08-11T11:38:41.238Z,101637.23
2018-08-11T11:41:09.289Z,101639.90
2018-08-11T11:43:37.368Z,101634.20
2018-08-11T11:46:05.432Z,101638.08
2018-08-11T11:48:33.500Z,101635.97
2018-08-11T11:51:01.580Z,101632.47
2018-08-11T11:53:29.631Z,101636.23
2018-08-11T11:55:57.702Z,101642.39
2018-08-11T11:58:25.760Z,101636.41
2018-08-11T12:00:53.812Z,101642.45
2018-08-11T12:03:21.881Z,101633.27
2018-08-11T12:05:49.954Z,101634.27
2018-08-11T12:08:17.995Z,101635.84
2018-08-11T12:10:46.072Z,101626.68
2018-08-11T12:13:14.151Z,101616.48
2018-08-11T12:15:42.338Z,101612.73
2018-08-11T12:18:10.401Z,101608.05
2018-08-11T12:20:38.560Z,101615.09
2018-08-11T12:23:06.677Z,101631.18
2018-08-11T12:25:34.760Z,101626.83
2018-08-11T12:28:02.841Z,101640.72
2018-08-11T12:30:30.928Z,101644.17
2018-08-11T12:32:59.012Z,101643.81
2018-08-11T12:35:27.079Z,101640.28
2018-08-11T12:37:55.195Z,101624.94
2018-08-11T12:40:23.224Z,101627.08
2018-08-11T12:42:51.327Z,101633.53
2018-08-11T12:45:19.407Z,101627.45
2018-08-11T12:47:47.504Z,101645.64
2018-08-11T12:50:15.563Z,101627.81
2018-08-11T12:52:43.644Z,101642.36
2018-08-11T12:55:11.807Z,101657.41
2018-08-11T12:57:39.886Z,101684.91
2018-08-11T13:00:09.181Z,101694.34
2018-08-11T13:02:37.352Z,101699.24
2018-08-11T13:05:05.534Z,101688.18
2018-08-11T13:07:33.678Z,101684.83
2018-08-11T13:10:01.750Z,101681.74
2018-08-11T13:12:30.424Z,101685.75
2018-08-11T13:14:58.488Z,101687.08
2018-08-11T13:17:26.557Z,101689.84
2018-08-11T13:19:54.588Z,101705.05
2018-08-11T13:22:23.035Z,101671.25
2018-08-11T13:24:51.076Z,101676.50
2018-08-11T13:27:19.161Z,101677.98
2018-08-11T13:29:47.244Z,101666.99
2018-08-11T13:32:15.361Z,101672.68
2018-08-11T13:34:43.394Z,101673.83
2018-08-11T13:37:11.496Z,101674.50
2018-08-11T13:39:46.167Z,101678.78
2018-08-11T13:42:14.336Z,101685.48
2018-08-11T13:44:42.397Z,101688.60
2018-08-11T13:47:10.458Z,101683.05
2018-08-11T13:49:38.510Z,101685.52
2018-08-11T13:52:06.591Z,101691.48
2018-08-11T13:54:34.672Z,101689.52
2018-08-11T13:57:02.741Z,101682.02
2018-08-11T13:59:30.812Z,101679.27
2018-08-11T14:01:58.888Z,101679.08
2018-08-11T14:04:26.951Z,101687.06
2018-08-11T14:06:55.041Z,101674.71
2018-08-11T14:09:23.111Z,101673.30
2018-08-11T14:11:51.202Z,101681.08
2018-08-11T14:14:19.267Z,101676.95
2018-08-11T14:16:47.336Z,101673.55
2018-08-11T14:19:15.394Z,101672.23
2018-08-11T14:21:43.541Z,101673.06
2018-08-11T14:24:11.568Z,101678.89
2018-08-11T14:26:39.644Z,101680.20
2018-08-11T14:29:07.706Z,101686.36
